D/T METAR WX W/DIR W/SPE G/SPE TEMP DEWP
20/06/19 16:20 EGHI 201520Z 25004KT 210V300 9999 SCT030 14/10 Q1015 WSW (250°) 4.6mph 14°C 10°C
20/06/19 15:50 EGHI 201450Z VRB02KT 9999 SCT030 14/10 Q1015 N (0°) 2.3mph 14°C 10°C
20/06/19 15:20 EGHI 201420Z 24006KT 210V290 9999 -SHRA SCT026 13/09 Q1015 -SHRA WSW (240°) 6.9mph 13°C 9°C
20/06/19 14:50 EGHI 201350Z 27006KT 230V320 9999 -SHRA SCT026 15/08 Q1014 -SHRA W (270°) 6.9mph 15°C 8°C
20/06/19 14:20 EGHI 201320Z 26005KT 220V300 9999 VCSH SCT026 15/09 Q1014 VCSH W (260°) 5.8mph 15°C 9°C
20/06/19 13:50 EGHI 201250Z 27004KT 240V310 9999 SCT026 14/09 Q1014 W (270°) 4.6mph 14°C 9°C
20/06/19 13:20 EGHI 201220Z 26009KT 220V290 9999 SCT026 15/08 Q1014 W (260°) 10.4mph 15°C 8°C
20/06/19 12:50 EGHI 201150Z 23009KT 190V270 9999 SCT026 16/09 Q1014 SW (230°) 10.4mph 16°C 9°C
20/06/19 12:20 EGHI 201120Z 25008KT 210V290 9999 FEW028 16/10 Q1014 WSW (250°) 9.2mph 16°C 10°C
20/06/19 11:50 EGHI 201050Z 24009KT 190V290 9999 VCSH FEW026 15/09 Q1014 VCSH WSW (240°) 10.4mph 15°C 9°C
20/06/19 11:20 EGHI 201020Z 24007KT 210V280 9999 VCSH SCT026 15/09 Q1014 VCSH WSW (240°) 8.1mph 15°C 9°C
20/06/19 10:50 EGHI 200950Z 24008KT 210V280 9999 SCT024 16/09 Q1013 WSW (240°) 9.2mph 16°C 9°C
20/06/19 10:20 EGHI 200920Z 22010KT 9999 SCT024 15/09 Q1013 SW (220°) 11.5mph 15°C 9°C
20/06/19 09:50 EGHI 200850Z 25007KT 200V300 9999 SCT022 14/09 Q1013 WSW (250°) 8.1mph 14°C 9°C
20/06/19 09:20 EGHI 200820Z 25007KT 210V290 9999 SCT025 14/09 Q1013 WSW (250°) 8.1mph 14°C 9°C
20/06/19 08:50 EGHI 200750Z 24009KT 210V290 9999 SCT025 14/09 Q1013 WSW (240°) 10.4mph 14°C 9°C
20/06/19 08:20 EGHI 200720Z 25006KT 200V360 9999 FEW025 13/09 Q1013 WSW (250°) 6.9mph 13°C 9°C
20/06/19 07:50 EGHI 200650Z 26004KT 200V310 9999 FEW028 13/09 Q1013 W (260°) 4.6mph 13°C 9°C
20/06/19 07:20 EGHI 200620Z VRB03KT 9999 FEW035 12/09 Q1012 N (0°) 3.5mph 12°C 9°C
20/06/19 06:50 EGHI 200550Z VRB02KT 9999 FEW045 11/08 Q1012 N (0°) 2.3mph 11°C 8°C
20/06/19 06:20 EGHI 200520Z VRB01KT 9999 FEW040 10/08 Q1012 N (0°) 1.2mph 10°C 8°C
20/06/19 05:50 EGHI 200450Z 17002KT 9999 FEW040 09/07 Q1012 S (170°) 2.3mph 9°C 7°C
19/06/19 22:50 EGHI 192150Z VRB02KT 9999 SCT025 SCT045 14/11 Q1010 N (0°) 2.3mph 14°C 11°C
19/06/19 22:20 EGHI 192120Z VRB02KT 9999 SCT025 SCT048 14/12 Q1010 N (0°) 2.3mph 14°C 12°C
19/06/19 21:50 EGHI 192050Z 23003KT 8000 FEW005 SCT012 14/12 Q1009 SW (230°) 3.5mph 14°C 12°C
19/06/19 21:20 EGHI 192020Z 23003KT 5000 -SHRA FEW005 SCT012 14/12 Q1009 -SHRA SW (230°) 3.5mph 14°C 12°C
19/06/19 20:50 EGHI 191950Z VRB01KT 4000 -SHRA FEW005 SCT010 14/12 Q1009 -SHRA N (0°) 1.2mph 14°C 12°C
19/06/19 20:20 EGHI 191920Z VRB03KT 4000 -SHRA FEW008 SCT014 14/12 Q1009 -SHRA N (0°) 3.5mph 14°C 12°C
19/06/19 19:50 EGHI 191850Z 20007KT 180V240 7000 FEW008 SCT012 15/12 Q1009 SSW (200°) 8.1mph 15°C 12°C
19/06/19 19:20 EGHI 191820Z 20006KT 9999 FEW018 SCT038 15/12 Q1009 SSW (200°) 6.9mph 15°C 12°C
19/06/19 18:50 EGHI 191750Z 19006KT 9999 FEW018 SCT038 15/12 Q1009 S (190°) 6.9mph 15°C 12°C
19/06/19 17:50 EGHI 191650Z 20009KT 7000 3500S SHRA FEW012 SCT022 15/12 Q1008 SHRA SSW (200°) 10.4mph 15°C 12°C
19/06/19 17:20 EGHI 191620Z VRB01KT 9999 VCSH FEW016 SCT032 16/12 Q1008 VCSH N (0°) 1.2mph 16°C 12°C
19/06/19 16:50 EGHI 191550Z 30005KT 270V330 9999 VCSH FEW016 SCT045 16/12 Q1008 RESHRA VCSH WNW (300°) 5.8mph 16°C 12°C
19/06/19 16:20 EGHI 191520Z 17004KT 140V200 9999 VCSH FEW025 SCT045 17/13 Q1008 VCSH S (170°) 4.6mph 17°C 13°C
19/06/19 15:50 EGHI 191450Z 26004KT 220V310 9999 SCT025 SCT045 18/12 Q1008 W (260°) 4.6mph 18°C 12°C
19/06/19 15:20 EGHI 191420Z VRB03KT 9999 SCT025 SCT035 18/12 Q1008 N (0°) 3.5mph 18°C 12°C
19/06/19 14:50 EGHI 191350Z 32004KT 260V010 9999 -SHRA FEW025 SCT035 18/13 Q1008 -SHRA NW (320°) 4.6mph 18°C 13°C
19/06/19 14:20 EGHI 191320Z 28005KT 240V300 9999 SCT022 18/12 Q1008 W (280°) 5.8mph 18°C 12°C
19/06/19 13:50 EGHI 191250Z 30005KT 270V340 9999 SCT017 18/12 Q1008 WNW (300°) 5.8mph 18°C 12°C
19/06/19 13:20 EGHI 191220Z 31004KT 260V360 9999 SCT017 18/13 Q1008 NW (310°) 4.6mph 18°C 13°C
19/06/19 12:50 EGHI 191150Z 30005KT 250V340 9999 SCT018 17/13 Q1008 WNW (300°) 5.8mph 17°C 13°C
19/06/19 12:20 EGHI 191120Z VRB04KT 9999 SCT018 17/13 Q1008 N (0°) 4.6mph 17°C 13°C
19/06/19 11:50 EGHI 191050Z VRB03KT 9999 SCT018 17/13 Q1008 N (0°) 3.5mph 17°C 13°C
19/06/19 11:20 EGHI 191020Z VRB03KT 9999 BKN016 17/13 Q1008 N (0°) 3.5mph 17°C 13°C
19/06/19 10:50 EGHI 190950Z VRB03KT 9999 BKN015 16/13 Q1008 N (0°) 3.5mph 16°C 13°C
19/06/19 10:20 EGHI 190920Z VRB03KT 9999 BKN013 16/12 Q1008 N (0°) 3.5mph 16°C 12°C
19/06/19 09:50 EGHI 190850Z 36004KT 9999 BKN013 16/12 Q1008 N (360°) 4.6mph 16°C 12°C